Pensacola Naval Air Station/Forrest Sherman field
KNPA : now visible

Airfield :











YOU CAN JOIN US ON...

 
LOGIN :

Register | Disclaimer

   EN    FR    IT 

 









Legend :    VFR   Marginal VFR   IFR   Intensive IFR   Very Intensive IFR
Visi :
Ceiling :
>= 8 km
>= 3000ft
5 to 8 km
1000 to 3000 ft
1500m to 5 km
500 to 1000 ft
800 to 1500m
200 to 500 ft
< 800m
< 200 ft
Symbols :   Thunderstorms  Fog  Heavy snow  Heavy precipitations  Wind > 20 kt






- Airport Elevation : 28 ft


KNPA - Pensacola Naval Air Station/Forrest Sherman field

CURRENT METAR :
  • 220356Z AUTO 14008KT 10SM SCT033 20/17 A3013 RMK AO2 SLP205 T02000172 $

EXPIRED METARs :
  • 220256Z 14010KT 10SM BKN031 BKN150 BKN250 20/18 A3014 RMK AO2 SLP206 T02000178 56004 $
  • 220236Z 13010KT 10SM BKN031 BKN150 BKN250 20/18 A3014 RMK AO2 T02000178 $
  • 220156Z 13010KT 10SM BKN029 BKN150 BKN250 19/18 A3014 RMK AO2 SLP207 T01940178 $

TAF TAF KNPA
Valid from the 21 at 23:00 until the 22 at 23:00 UTC


2123/2223 07007KT 9999 SCT030 BKN150 BKN250 QNH3012INS
TEMPO 2201/2207 BKN025
FM220900 14005KT 9999 SCT020 BKN120 BKN250 QNH3013INS
TEMPO 2209/2215 BKN020
FM221800 18009KT 9999 SCT025 SCT050 BKN100 OVC250 QNH3005INS AUTOMATED SENSOR METWATCH 2203 TIL 2212 T13/2212Z T23/2121Z FN20034



MET'MAP, your aeronautical weather chart ! - Copyright ORBIFLY December 2007 - Disclaimer

ORBIFLY MET'MAP TEAM :

Programming & Development : Alexandra Zaïnal
Concept & Development : Baudouin d'Aumeries
Co-Development & Prog : Marc-Olivier Méhu
Technical & hardware support : Manuel Goepfert

Contact : metmap@orbifly.com




SOURCES & CREDITS :

   NOAA       Earth
Advisory